createdAt,value
2023-01-28T00:00:34.155Z,31.20
2023-01-28T00:02:37.150Z,30.75
2023-01-28T00:04:40.171Z,28.90
2023-01-28T00:06:42.886Z,26.98
2023-01-28T00:08:47.214Z,28.08
2023-01-28T00:10:49.771Z,27.10
2023-01-28T00:12:52.290Z,27.10
2023-01-28T00:14:54.848Z,29.55
2023-01-28T00:16:57.385Z,27.90
2023-01-28T00:18:59.979Z,29.73
2023-01-28T00:21:04.581Z,28.63
2023-01-28T00:23:07.334Z,25.80
2023-01-28T00:25:11.334Z,28.50
2023-01-28T00:27:13.891Z,28.60
2023-01-28T00:29:16.423Z,28.77
2023-01-28T00:31:22.112Z,27.30
2023-01-28T00:33:25.139Z,26.67
2023-01-28T00:35:28.003Z,26.65
2023-01-28T00:37:30.554Z,31.85
2023-01-28T00:39:33.332Z,28.55
2023-01-28T00:41:37.437Z,27.15
2023-01-28T00:43:40.820Z,28.13
2023-01-28T00:45:43.730Z,28.80
2023-01-28T00:47:46.247Z,25.38
2023-01-28T00:49:48.802Z,27.25
2023-01-28T00:51:51.402Z,29.77
2023-01-28T00:53:54.020Z,30.48
2023-01-28T00:55:56.643Z,28.30
2023-01-28T00:58:00.523Z,27.73
2023-01-28T01:00:03.355Z,27.23
2023-01-28T01:02:13.089Z,25.05
2023-01-28T01:04:26.946Z,25.38
2023-01-28T01:06:31.354Z,26.83
2023-01-28T01:08:35.971Z,26.73
2023-01-28T01:10:39.137Z,28.17
2023-01-28T01:12:42.195Z,28.85
2023-01-28T01:14:46.074Z,28.20
2023-01-28T01:16:48.686Z,29.25
2023-01-28T01:18:52.827Z,29.92
2023-01-28T01:20:58.919Z,28.85
2023-01-28T01:23:01.493Z,27.52
2023-01-28T01:25:05.101Z,27.48
2023-01-28T01:27:07.655Z,28.80
2023-01-28T01:29:10.758Z,27.25
2023-01-28T01:31:15.977Z,29.05
2023-01-28T01:33:18.676Z,27.00
2023-01-28T01:35:21.260Z,28.48
2023-01-28T01:37:23.797Z,25.98
2023-01-28T01:39:26.476Z,27.50
2023-01-28T01:41:31.351Z,26.83
2023-01-28T01:43:48.462Z,27.13
2023-01-28T01:45:57.081Z,31.10
2023-01-28T01:48:04.852Z,27.17
2023-01-28T01:50:15.092Z,26.02
2023-01-28T01:52:24.239Z,29.15
2023-01-28T01:54:29.531Z,26.55
2023-01-28T01:56:38.727Z,31.60
2023-01-28T01:58:45.094Z,29.05
2023-01-28T02:00:47.671Z,25.92
2023-01-28T02:02:52.333Z,25.17
2023-01-28T02:04:56.291Z,28.08
2023-01-28T02:07:01.490Z,30.65
2023-01-28T02:09:04.447Z,28.80
2023-01-28T02:11:09.558Z,28.90
2023-01-28T02:13:12.330Z,27.60
2023-01-28T02:15:18.320Z,28.13
2023-01-28T02:17:21.809Z,27.10
2023-01-28T02:19:28.350Z,23.73
2023-01-28T02:22:06.878Z,27.55
2023-01-28T02:24:31.173Z,23.60
2023-01-28T02:26:51.208Z,24.52
2023-01-28T02:28:59.567Z,22.55
2023-01-28T02:31:09.841Z,26.58
2023-01-28T02:33:18.777Z,24.70
2023-01-28T02:35:30.363Z,27.15
2023-01-28T02:37:39.193Z,26.30
2023-01-28T02:39:48.896Z,27.48
2023-01-28T02:41:54.802Z,21.33
2023-01-28T02:43:58.746Z,26.05
2023-01-28T02:46:27.249Z,27.42
2023-01-28T02:48:29.879Z,26.77
2023-01-28T02:50:44.461Z,24.90
2023-01-28T02:53:20.619Z,26.65
2023-01-28T02:55:33.608Z,24.05
2023-01-28T02:57:44.197Z,26.77
2023-01-28T02:59:52.593Z,22.60
2023-01-28T03:02:01.584Z,25.77
2023-01-28T03:04:09.154Z,24.15
2023-01-28T03:06:15.861Z,26.17
2023-01-28T03:08:36.410Z,25.08
2023-01-28T03:10:39.006Z,23.58
2023-01-28T03:13:02.544Z,21.13
2023-01-28T03:15:27.545Z,26.45
2023-01-28T03:17:54.900Z,25.85
2023-01-28T03:20:15.442Z,25.48
2023-01-28T03:22:35.698Z,26.25
2023-01-28T03:25:02.496Z,27.40
2023-01-28T03:27:27.216Z,26.10
2023-01-28T03:29:50.589Z,25.58
2023-01-28T03:32:13.549Z,24.45
2023-01-28T03:34:33.883Z,24.88
2023-01-28T03:36:50.339Z,25.10
2023-01-28T03:38:53.150Z,26.38
2023-01-28T03:40:58.196Z,24.42
2023-01-28T03:43:00.829Z,21.98
2023-01-28T03:45:04.777Z,25.20
2023-01-28T03:47:09.035Z,24.33
2023-01-28T03:49:11.591Z,26.30
2023-01-28T03:51:14.181Z,22.27
2023-01-28T03:53:17.219Z,24.50
2023-01-28T03:55:19.825Z,25.73
2023-01-28T03:57:25.067Z,23.63
2023-01-28T03:59:27.657Z,25.13
2023-01-28T04:01:30.344Z,30.80
2023-01-28T04:03:34.243Z,25.52
2023-01-28T04:05:36.767Z,24.85
2023-01-28T04:07:39.781Z,28.67
2023-01-28T04:09:43.177Z,21.73
2023-01-28T04:11:46.261Z,24.92
2023-01-28T04:13:52.072Z,25.20
2023-01-28T04:15:54.657Z,24.42
2023-01-28T04:17:57.227Z,24.08
2023-01-28T04:20:03.421Z,21.40
2023-01-28T04:22:07.772Z,22.75
2023-01-28T04:24:10.699Z,23.77
2023-01-28T04:26:13.279Z,21.20
2023-01-28T04:28:15.815Z,24.52
2023-01-28T04:30:18.927Z,23.80
2023-01-28T04:32:21.483Z,19.42
2023-01-28T04:34:24.086Z,21.90
2023-01-28T04:36:28.241Z,26.20
2023-01-28T04:38:30.790Z,24.20
2023-01-28T04:40:33.393Z,24.65
2023-01-28T04:42:36.079Z,23.48
2023-01-28T04:44:38.640Z,25.15
2023-01-28T04:46:43.016Z,24.80
2023-01-28T04:48:45.703Z,25.73
2023-01-28T04:50:48.280Z,25.10
2023-01-28T04:52:52.175Z,24.13
2023-01-28T04:54:54.718Z,24.98
2023-01-28T04:56:57.291Z,23.45
2023-01-28T04:58:59.870Z,23.88
2023-01-28T05:01:02.543Z,22.75
2023-01-28T05:03:05.127Z,22.50
2023-01-28T05:05:08.924Z,23.38
2023-01-28T05:07:11.901Z,24.42
2023-01-28T05:09:15.838Z,24.02
2023-01-28T05:11:18.437Z,22.27
2023-01-28T05:13:20.957Z,25.30
2023-01-28T05:15:23.883Z,23.98
2023-01-28T05:17:26.511Z,22.13
2023-01-28T05:19:29.070Z,24.48
2023-01-28T05:21:31.645Z,23.83
2023-01-28T05:23:34.283Z,22.58
2023-01-28T05:25:38.177Z,21.95
2023-01-28T05:27:40.797Z,22.05
2023-01-28T05:29:43.352Z,22.98
2023-01-28T05:31:45.931Z,20.88
2023-01-28T05:33:48.505Z,22.02
2023-01-28T05:35:51.061Z,26.35
2023-01-28T05:37:53.673Z,23.75
2023-01-28T05:39:56.193Z,23.90
2023-01-28T05:42:00.146Z,24.00
2023-01-28T05:44:02.982Z,24.48
2023-01-28T05:46:05.951Z,24.55
2023-01-28T05:48:08.954Z,22.05
2023-01-28T05:50:15.036Z,22.30
2023-01-28T05:52:17.909Z,20.55
2023-01-28T05:54:20.608Z,25.67
2023-01-28T05:56:23.223Z,21.02
2023-01-28T05:58:30.809Z,23.35
2023-01-28T06:00:33.465Z,21.10
2023-01-28T06:02:36.079Z,20.52
2023-01-28T06:04:39.105Z,21.42
2023-01-28T06:06:41.684Z,20.30
2023-01-28T06:08:44.240Z,21.65
2023-01-28T06:10:47.271Z,24.23
2023-01-28T06:12:49.924Z,22.92
2023-01-28T06:14:53.845Z,20.27
2023-01-28T06:16:56.403Z,21.42
2023-01-28T06:18:59.434Z,20.90
2023-01-28T06:21:02.000Z,23.85
2023-01-28T06:23:04.562Z,22.50
2023-01-28T06:25:08.387Z,24.95
2023-01-28T06:27:12.119Z,22.13
2023-01-28T06:29:14.670Z,20.65
2023-01-28T06:31:19.078Z,21.33
2023-01-28T06:33:22.627Z,23.10
2023-01-28T06:35:25.320Z,19.98
2023-01-28T06:37:27.965Z,19.58
2023-01-28T06:39:31.866Z,20.88
2023-01-28T06:41:34.446Z,20.83
2023-01-28T06:43:37.062Z,19.67
2023-01-28T06:45:39.713Z,18.90
2023-01-28T06:48:01.302Z,19.45
2023-01-28T06:50:03.894Z,25.90
2023-01-28T06:52:06.546Z,20.85
2023-01-28T06:54:09.552Z,20.50
2023-01-28T06:56:12.212Z,19.25
2023-01-28T06:58:15.088Z,21.23
2023-01-28T07:00:19.516Z,19.23
2023-01-28T07:02:22.076Z,22.27
2023-01-28T07:04:26.095Z,22.52
2023-01-28T07:06:28.677Z,19.48
2023-01-28T07:08:31.324Z,22.40
2023-01-28T07:10:34.157Z,22.27
2023-01-28T07:12:36.720Z,21.17
2023-01-28T07:14:39.309Z,21.90
2023-01-28T07:16:41.879Z,24.48
2023-01-28T07:18:44.469Z,21.60
2023-01-28T07:20:48.366Z,21.73
2023-01-28T07:22:51.073Z,23.52
2023-01-28T07:24:53.602Z,17.90
2023-01-28T07:26:56.202Z,22.52
2023-01-28T07:28:58.765Z,19.33
2023-01-28T07:31:01.419Z,21.08
2023-01-28T07:33:04.100Z,20.92
2023-01-28T07:35:07.837Z,21.35
2023-01-28T07:37:11.918Z,18.67
2023-01-28T07:39:14.477Z,19.83
2023-01-28T07:41:17.059Z,20.25
2023-01-28T07:43:19.610Z,22.45
2023-01-28T07:45:22.245Z,19.25
2023-01-28T07:47:24.879Z,19.90
2023-01-28T07:49:27.474Z,21.55
2023-01-28T07:51:29.988Z,21.20
2023-01-28T07:53:33.880Z,21.05
2023-01-28T07:55:36.740Z,22.55
2023-01-28T07:57:39.304Z,19.40
2023-01-28T07:59:41.873Z,19.73
2023-01-28T08:01:44.578Z,21.60
2023-01-28T08:03:47.189Z,17.67
2023-01-28T08:05:52.937Z,18.25
2023-01-28T08:07:55.555Z,19.05
2023-01-28T08:09:59.448Z,22.77
2023-01-28T08:12:03.616Z,21.90
2023-01-28T08:14:06.264Z,20.98
2023-01-28T08:16:09.135Z,21.42
2023-01-28T08:18:13.648Z,21.15
2023-01-28T08:20:17.047Z,21.35
2023-01-28T08:22:19.764Z,19.15
2023-01-28T08:24:22.358Z,20.77
2023-01-28T08:26:26.322Z,22.05
2023-01-28T08:28:29.248Z,18.58
2023-01-28T08:30:32.223Z,19.98
2023-01-28T08:32:34.802Z,19.33
2023-01-28T08:34:37.622Z,20.00
2023-01-28T08:36:40.180Z,24.58
2023-01-28T08:38:43.407Z,21.10
2023-01-28T08:40:46.028Z,19.85
2023-01-28T08:42:50.470Z,20.98
2023-01-28T08:44:52.997Z,23.77
2023-01-28T08:46:55.506Z,21.15
2023-01-28T08:48:58.085Z,20.00
2023-01-28T08:51:00.916Z,19.98
2023-01-28T08:53:05.797Z,21.35
2023-01-28T08:55:09.563Z,22.90
2023-01-28T08:57:12.166Z,22.67
2023-01-28T08:59:16.156Z,22.30
2023-01-28T09:01:18.752Z,22.65
2023-01-28T09:03:21.353Z,21.55
2023-01-28T09:05:24.138Z,20.42
2023-01-28T09:07:26.754Z,21.65
2023-01-28T09:09:31.196Z,23.48
2023-01-28T09:11:33.763Z,22.25
2023-01-28T09:13:36.336Z,24.95
2023-01-28T09:15:40.476Z,25.33
2023-01-28T09:17:43.058Z,22.83
2023-01-28T09:19:45.608Z,25.88
2023-01-28T09:21:48.179Z,24.92
2023-01-28T09:23:50.755Z,23.45
2023-01-28T09:26:01.071Z,23.00
2023-01-28T09:28:04.123Z,22.98
2023-01-28T09:30:07.581Z,24.35
2023-01-28T09:32:11.458Z,23.02
2023-01-28T09:34:14.182Z,26.15
2023-01-28T09:36:16.708Z,22.85
2023-01-28T09:38:19.246Z,20.80
2023-01-28T09:40:31.426Z,23.83
2023-01-28T09:42:47.803Z,20.65
2023-01-28T09:45:02.368Z,23.88
2023-01-28T09:47:10.517Z,23.85
2023-01-28T09:49:22.132Z,20.70
2023-01-28T09:51:33.429Z,22.38
2023-01-28T09:53:40.575Z,25.42
2023-01-28T09:55:47.044Z,21.90
2023-01-28T09:57:53.179Z,21.27
2023-01-28T09:59:55.797Z,25.05
2023-01-28T10:02:05.604Z,25.25
2023-01-28T10:04:23.252Z,23.92
2023-01-28T10:06:35.222Z,26.98
2023-01-28T10:08:57.694Z,26.15
2023-01-28T10:11:12.102Z,25.17
2023-01-28T10:13:37.821Z,23.27
2023-01-28T10:15:56.002Z,25.75
2023-01-28T10:18:16.622Z,23.00
2023-01-28T10:20:28.866Z,22.90
2023-01-28T10:22:33.430Z,24.52
2023-01-28T10:24:37.641Z,21.40
2023-01-28T10:26:42.606Z,19.60
2023-01-28T10:28:54.622Z,25.17
2023-01-28T10:30:57.695Z,23.40
2023-01-28T10:33:05.334Z,21.77
2023-01-28T10:35:08.455Z,22.88
2023-01-28T10:37:14.507Z,24.33
2023-01-28T10:39:19.171Z,19.88
2023-01-28T10:41:25.762Z,21.50
2023-01-28T10:43:32.298Z,23.05
2023-01-28T10:45:41.486Z,23.77
2023-01-28T10:47:48.216Z,21.02
2023-01-28T10:49:56.126Z,22.13
2023-01-28T10:51:58.921Z,22.48
2023-01-28T10:54:03.103Z,22.48
2023-01-28T10:56:08.758Z,21.20
2023-01-28T10:58:18.403Z,22.10
2023-01-28T11:00:27.228Z,20.40
2023-01-28T11:02:33.169Z,23.08
2023-01-28T11:04:37.142Z,21.52
2023-01-28T11:06:40.735Z,19.75
2023-01-28T11:08:45.405Z,19.98
2023-01-28T11:10:50.217Z,19.20
2023-01-28T11:12:56.835Z,18.15
2023-01-28T11:15:01.264Z,22.52
2023-01-28T11:17:04.054Z,21.17
2023-01-28T11:19:07.390Z,18.67
2023-01-28T11:21:19.453Z,20.15
2023-01-28T11:23:25.769Z,18.75
2023-01-28T11:25:32.298Z,18.08
2023-01-28T11:27:36.564Z,20.75
2023-01-28T11:29:42.029Z,17.67
2023-01-28T11:31:45.503Z,21.27
2023-01-28T11:33:51.954Z,18.45
2023-01-28T11:35:55.912Z,18.65
2023-01-28T11:37:59.536Z,21.88
2023-01-28T11:40:04.195Z,17.17
2023-01-28T11:42:16.931Z,20.23
2023-01-28T11:44:24.372Z,20.00
2023-01-28T11:46:44.460Z,31.88
2023-01-28T11:48:54.927Z,30.13
2023-01-28T11:51:02.232Z,26.63
2023-01-28T11:53:36.875Z,21.20
2023-01-28T11:55:48.685Z,23.23
2023-01-28T12:00:19.128Z,22.58
2023-01-28T12:02:38.802Z,23.37
2023-01-28T12:04:59.217Z,22.23
2023-01-28T12:07:20.632Z,22.80
2023-01-28T12:09:35.692Z,22.23
2023-01-28T12:12:08.361Z,21.38
2023-01-28T12:14:21.525Z,21.40
2023-01-28T12:16:41.569Z,22.38
2023-01-28T12:19:10.405Z,22.83
2023-01-28T12:21:24.250Z,25.52
2023-01-28T12:23:44.547Z,23.00
2023-01-28T12:26:02.163Z,23.77
2023-01-28T12:28:15.111Z,22.20
2023-01-28T12:30:30.225Z,23.85
2023-01-28T12:32:50.188Z,21.10
2023-01-28T12:35:18.742Z,21.20
2023-01-28T12:37:31.618Z,22.27
2023-01-28T12:39:48.028Z,18.02
2023-01-28T12:41:56.899Z,23.38
2023-01-28T12:44:03.488Z,20.80
2023-01-28T12:46:11.706Z,25.30
2023-01-28T12:48:19.054Z,27.98
2023-01-28T12:50:26.128Z,22.80
2023-01-28T12:52:34.100Z,24.25
2023-01-28T12:54:40.473Z,22.10
2023-01-28T12:56:47.842Z,26.42
2023-01-28T12:58:58.089Z,24.63
2023-01-28T13:01:08.356Z,31.10
2023-01-28T13:03:18.682Z,27.63
2023-01-28T13:05:28.208Z,24.02
2023-01-28T13:07:36.316Z,23.75
2023-01-28T13:09:44.123Z,25.73
2023-01-28T13:11:49.297Z,25.25
2023-01-28T13:13:52.509Z,21.83
2023-01-28T13:15:55.157Z,26.15
2023-01-28T13:18:00.271Z,25.08
2023-01-28T13:20:16.211Z,27.35
2023-01-28T13:22:30.145Z,29.98
2023-01-28T13:24:33.823Z,24.77
2023-01-28T13:26:44.324Z,25.30
2023-01-28T13:28:48.354Z,25.52
2023-01-28T13:30:51.015Z,25.13
2023-01-28T13:32:59.816Z,24.75
2023-01-28T13:35:06.969Z,25.63
2023-01-28T13:37:23.062Z,24.55
2023-01-28T13:39:28.092Z,22.10
2023-01-28T13:41:41.884Z,25.30
2023-01-28T13:43:44.500Z,21.33
2023-01-28T13:45:57.727Z,26.40
2023-01-28T13:48:15.416Z,26.60
2023-01-28T13:50:21.627Z,24.15
2023-01-28T13:52:28.520Z,24.45
2023-01-28T13:54:36.269Z,25.67
2023-01-28T13:56:43.498Z,28.27
2023-01-28T13:59:33.412Z,23.95
2023-01-28T14:02:04.172Z,25.17
2023-01-28T14:04:35.392Z,23.63
2023-01-28T14:06:59.972Z,26.87
2023-01-28T14:09:30.247Z,24.10
2023-01-28T14:11:57.739Z,24.85
2023-01-28T14:14:22.552Z,27.05
2023-01-28T14:16:35.946Z,26.05
2023-01-28T14:18:42.873Z,29.25
2023-01-28T14:20:46.844Z,26.95
2023-01-28T14:22:51.168Z,25.73
2023-01-28T14:24:54.769Z,33.35
2023-01-28T14:27:04.673Z,27.95
2023-01-28T14:29:19.031Z,29.63
2023-01-28T14:31:27.770Z,29.60
2023-01-28T14:33:30.510Z,27.27
2023-01-28T14:35:35.983Z,26.50
2023-01-28T14:37:39.386Z,26.63
2023-01-28T14:39:46.632Z,24.73
2023-01-28T14:41:51.838Z,28.95
2023-01-28T14:43:56.855Z,29.33
2023-01-28T14:46:13.152Z,29.20
2023-01-28T14:48:25.327Z,29.42
2023-01-28T14:50:34.985Z,32.58
2023-01-28T14:52:55.340Z,31.05
2023-01-28T14:55:13.309Z,30.25
2023-01-28T14:57:28.851Z,29.85
2023-01-28T14:59:40.582Z,33.30
2023-01-28T15:01:46.018Z,30.48
2023-01-28T15:03:48.670Z,29.25
2023-01-28T15:05:51.279Z,29.83
2023-01-28T15:07:54.521Z,28.98
2023-01-28T15:10:05.143Z,31.23
2023-01-28T15:12:09.094Z,31.05
2023-01-28T15:14:17.484Z,24.85
2023-01-28T15:16:23.770Z,22.00
2023-01-28T15:18:31.866Z,15.68
2023-01-28T15:20:34.729Z,16.42
2023-01-28T15:22:38.428Z,15.23
2023-01-28T15:24:44.280Z,14.13
2023-01-28T15:26:48.561Z,16.73
2023-01-28T15:28:51.944Z,16.40
2023-01-28T15:30:55.274Z,16.20
2023-01-28T15:33:01.261Z,14.82
2023-01-28T15:35:14.086Z,15.65
2023-01-28T15:37:17.656Z,15.32
2023-01-28T15:39:22.177Z,18.88
2023-01-28T15:41:29.332Z,14.90
2023-01-28T15:43:34.892Z,15.48
2023-01-28T15:45:37.654Z,14.88
2023-01-28T15:47:40.348Z,14.23
2023-01-28T15:49:47.960Z,14.93
2023-01-28T15:51:52.063Z,15.90
2023-01-28T15:53:59.438Z,16.00
2023-01-28T15:56:06.608Z,14.13
2023-01-28T15:58:21.174Z,14.20
2023-01-28T16:00:26.070Z,19.98
2023-01-28T16:02:29.199Z,16.75
2023-01-28T16:04:31.754Z,14.48
2023-01-28T16:06:38.695Z,14.18
2023-01-28T16:08:46.114Z,15.35
2023-01-28T16:10:53.980Z,16.48
2023-01-28T16:13:04.867Z,16.17
2023-01-28T16:15:08.522Z,14.18
2023-01-28T16:17:16.933Z,14.27
2023-01-28T16:19:29.827Z,14.30
2023-01-28T16:21:36.776Z,14.32
2023-01-28T16:23:41.328Z,18.60
2023-01-28T16:25:43.928Z,15.20
2023-01-28T16:27:46.494Z,15.45
2023-01-28T16:29:49.211Z,15.00
2023-01-28T16:31:51.864Z,15.95
2023-01-28T16:33:54.464Z,14.77
2023-01-28T16:36:07.928Z,15.77
2023-01-28T16:38:16.694Z,16.42
2023-01-28T16:40:22.641Z,16.42
2023-01-28T16:42:26.049Z,15.43
2023-01-28T16:44:28.649Z,17.38
2023-01-28T16:46:31.229Z,16.10
2023-01-28T16:48:33.784Z,17.42
2023-01-28T16:50:39.760Z,18.35
2023-01-28T16:52:43.833Z,16.50
2023-01-28T16:54:46.530Z,17.48
2023-01-28T16:56:50.540Z,18.00
2023-01-28T16:58:53.141Z,16.35
2023-01-28T17:00:56.210Z,13.50
2023-01-28T17:02:58.838Z,17.13
2023-01-28T17:05:01.793Z,18.45
2023-01-28T17:07:04.827Z,14.50
2023-01-28T17:09:07.562Z,17.08
2023-01-28T17:11:10.169Z,17.27
2023-01-28T17:13:14.064Z,17.17
2023-01-28T17:15:17.429Z,14.82
2023-01-28T17:17:20.320Z,14.82
2023-01-28T17:19:23.393Z,16.98
2023-01-28T17:21:25.985Z,20.20
2023-01-28T17:23:28.553Z,16.65
2023-01-28T17:25:31.104Z,15.75
2023-01-28T17:27:33.645Z,15.57
2023-01-28T17:29:37.643Z,17.30
2023-01-28T17:31:40.307Z,13.35
2023-01-28T17:33:43.190Z,17.15
2023-01-28T17:35:47.403Z,15.52
2023-01-28T17:37:53.391Z,15.07
2023-01-28T17:39:55.983Z,17.38
2023-01-28T17:41:58.566Z,16.55
2023-01-28T17:44:01.858Z,15.82
2023-01-28T17:46:13.283Z,18.13
2023-01-28T17:48:15.879Z,16.33
2023-01-28T17:50:18.563Z,19.08
2023-01-28T17:52:21.103Z,15.02
2023-01-28T17:54:24.761Z,17.02
2023-01-28T17:56:28.968Z,15.27
2023-01-28T17:58:31.582Z,14.55
2023-01-28T18:00:34.491Z,13.45
2023-01-28T18:02:38.449Z,13.88
2023-01-28T18:04:41.798Z,18.50
2023-01-28T18:06:44.771Z,15.65
2023-01-28T18:08:47.479Z,16.25
2023-01-28T18:10:50.056Z,15.35
2023-01-28T18:12:52.654Z,13.68
2023-01-28T18:14:55.232Z,13.90
2023-01-28T18:16:57.813Z,14.38
2023-01-28T18:19:01.776Z,15.30
2023-01-28T18:21:06.667Z,13.77
2023-01-28T18:23:09.399Z,15.13
2023-01-28T18:25:16.376Z,16.17
2023-01-28T18:27:20.869Z,17.80
2023-01-28T18:29:24.100Z,17.13
2023-01-28T18:31:26.784Z,18.17
2023-01-28T18:33:29.335Z,14.15
2023-01-28T18:35:33.261Z,16.98
2023-01-28T18:37:35.822Z,16.88
2023-01-28T18:39:39.783Z,18.48
2023-01-28T18:41:42.646Z,14.63
2023-01-28T18:43:45.228Z,20.00
2023-01-28T18:45:50.435Z,14.88
2023-01-28T18:47:53.015Z,16.48
2023-01-28T18:49:55.566Z,15.27
2023-01-28T18:51:59.539Z,17.27
2023-01-28T18:54:05.092Z,15.70
2023-01-28T18:56:09.165Z,17.17
2023-01-28T18:58:11.813Z,17.67
2023-01-28T19:00:15.325Z,17.08
2023-01-28T19:02:17.921Z,17.17
2023-01-28T19:04:20.933Z,18.55
2023-01-28T19:06:24.077Z,21.38
2023-01-28T19:08:28.914Z,17.67
2023-01-28T19:10:31.606Z,17.23
2023-01-28T19:12:34.187Z,15.10
2023-01-28T19:14:36.731Z,18.90
2023-01-28T19:16:39.979Z,16.13
2023-01-28T19:18:42.663Z,16.25
2023-01-28T19:20:45.969Z,14.15
2023-01-28T19:22:48.528Z,17.48
2023-01-28T19:24:54.556Z,16.08
2023-01-28T19:26:57.242Z,19.52
2023-01-28T19:29:00.216Z,16.60
2023-01-28T19:31:03.923Z,16.48
2023-01-28T19:33:07.475Z,14.73
2023-01-28T19:35:10.489Z,19.23
2023-01-28T19:37:13.389Z,16.63
2023-01-28T19:39:16.755Z,17.77
2023-01-28T19:41:20.662Z,16.85
2023-01-28T19:43:23.556Z,17.25
2023-01-28T19:45:26.130Z,20.90
2023-01-28T19:47:28.706Z,18.17
2023-01-28T19:49:31.504Z,18.30
2023-01-28T19:51:34.089Z,16.92
2023-01-28T19:53:37.440Z,17.92
2023-01-28T19:55:40.033Z,18.85
2023-01-28T19:57:44.698Z,18.08
2023-01-28T19:59:47.353Z,19.10
2023-01-28T20:01:49.959Z,14.73
2023-01-28T20:03:54.664Z,18.58
2023-01-28T20:06:00.902Z,15.77
2023-01-28T20:08:03.648Z,18.50
2023-01-28T20:10:07.034Z,22.58
2023-01-28T20:12:11.918Z,18.77
2023-01-28T20:14:16.146Z,19.17
2023-01-28T20:16:21.436Z,17.85
2023-01-28T20:18:24.023Z,17.80
2023-01-28T20:20:26.571Z,19.40
2023-01-28T20:22:29.199Z,17.75
2023-01-28T20:24:31.770Z,17.73
2023-01-28T20:26:37.311Z,18.52
2023-01-28T20:28:39.907Z,18.45
2023-01-28T20:30:43.930Z,18.98
2023-01-28T20:32:46.550Z,18.27
2023-01-28T20:34:49.161Z,21.27
2023-01-28T20:36:51.792Z,17.38
2023-01-28T20:38:54.694Z,20.85
2023-01-28T20:40:57.276Z,18.67
2023-01-28T20:43:00.246Z,19.50
2023-01-28T20:45:02.850Z,20.58
2023-01-28T20:47:07.166Z,16.60
2023-01-28T20:49:10.404Z,20.30
2023-01-28T20:51:15.297Z,23.67
2023-01-28T20:53:18.917Z,19.42
2023-01-28T20:55:21.482Z,21.33
2023-01-28T20:57:24.032Z,19.58
2023-01-28T20:59:27.495Z,19.70
2023-01-28T21:01:31.884Z,17.95
2023-01-28T21:03:35.826Z,23.83
2023-01-28T21:05:38.382Z,20.45
2023-01-28T21:07:40.941Z,17.98
2023-01-28T21:09:44.698Z,21.25
2023-01-28T21:11:47.259Z,20.98
2023-01-28T21:13:50.042Z,22.55
2023-01-28T21:15:54.814Z,17.60
2023-01-28T21:17:57.414Z,22.98
2023-01-28T21:20:01.348Z,21.42
2023-01-28T21:22:04.076Z,20.02
2023-01-28T21:24:07.825Z,21.75
2023-01-28T21:26:11.063Z,22.60
2023-01-28T21:28:14.538Z,22.00
2023-01-28T21:30:18.111Z,20.65
2023-01-28T21:32:25.529Z,23.35
2023-01-28T21:34:29.421Z,20.88
2023-01-28T21:36:34.359Z,20.00
2023-01-28T21:38:36.995Z,23.15
2023-01-28T21:40:39.898Z,22.20
2023-01-28T21:42:43.493Z,19.58
2023-01-28T21:44:47.070Z,22.23
2023-01-28T21:46:49.662Z,19.73
2023-01-28T21:48:55.132Z,21.73
2023-01-28T21:51:22.008Z,20.33
2023-01-28T21:53:25.943Z,23.00
2023-01-28T21:55:28.444Z,23.50
2023-01-28T21:57:31.017Z,19.80
2023-01-28T21:59:32.688Z,20.98
2023-01-28T22:03:37.785Z,20.55
2023-01-28T22:05:40.329Z,21.75
2023-01-28T22:07:42.904Z,24.42
2023-01-28T22:09:48.546Z,19.63
2023-01-28T22:11:51.204Z,21.67
2023-01-28T22:13:53.869Z,18.13
2023-01-28T22:15:56.430Z,18.30
2023-01-28T22:17:59.006Z,21.70
2023-01-28T22:20:01.614Z,19.33
2023-01-28T22:22:04.745Z,21.15
2023-01-28T22:24:11.891Z,22.42
2023-01-28T22:26:15.796Z,18.40
2023-01-28T22:28:18.384Z,22.88
2023-01-28T22:30:21.048Z,21.55
2023-01-28T22:32:23.665Z,22.75
2023-01-28T22:34:27.257Z,19.17
2023-01-28T22:36:30.038Z,19.65
2023-01-28T22:38:32.736Z,20.27
2023-01-28T22:40:35.765Z,19.40
2023-01-28T22:42:39.716Z,23.35
2023-01-28T22:44:42.282Z,20.25
2023-01-28T22:46:44.894Z,22.65
2023-01-28T22:48:48.189Z,22.23
2023-01-28T22:50:50.738Z,23.52
2023-01-28T22:52:53.288Z,22.00
2023-01-28T22:54:55.867Z,21.08
2023-01-28T22:56:58.453Z,21.38
2023-01-28T22:59:03.828Z,22.23
2023-01-28T23:01:07.254Z,21.83
2023-01-28T23:03:10.146Z,26.27
2023-01-28T23:05:12.774Z,21.40
2023-01-28T23:07:15.370Z,21.83
2023-01-28T23:09:17.972Z,26.70
2023-01-28T23:11:27.201Z,22.50
2023-01-28T23:13:50.849Z,24.55
2023-01-28T23:16:12.729Z,24.05
2023-01-28T23:18:36.898Z,21.50
2023-01-28T23:21:05.985Z,21.85
2023-01-28T23:23:33.380Z,23.58
2023-01-28T23:25:36.143Z,21.05
2023-01-28T23:27:39.600Z,21.98
2023-01-28T23:29:42.284Z,20.38
2023-01-28T23:31:48.628Z,22.60
2023-01-28T23:33:51.278Z,17.95
2023-01-28T23:35:53.832Z,19.98
2023-01-28T23:37:56.533Z,23.55
2023-01-28T23:39:59.831Z,19.52
2023-01-28T23:42:10.429Z,25.35
2023-01-28T23:44:13.009Z,17.58
2023-01-28T23:46:15.621Z,19.73
2023-01-28T23:48:19.574Z,19.70
2023-01-28T23:50:22.779Z,23.98
2023-01-28T23:52:26.654Z,20.63
2023-01-28T23:54:29.245Z,23.10
2023-01-28T23:56:31.790Z,20.60
2023-01-28T23:58:43.411Z,24.70
